Linville, Virginia
Current Conditions -  °F | °C
As of 10:15 AM on Wednesday 26 Nov 2014 (Local Time) from K8W2 Reporting Station
Overcast Overcast  
Wind Chill: 27°   Ceiling: 400
Heat Index: 33°   Visibility: 0.75mi
Dew Point: 32°   Wind: 6mph
Humidity: 98%   Direction: 360°N
Pressure: 30.05"   Gusts: NA
Location:  38.52°N, 78.84°W
Report Text: K8W2 261515Z AUTO 36005KT 3/4SM BKN004 OVC012 00/00 A3005 RMK AO1 P0003 T00030000
Loading
Personal Weather Stations






























Interactive Weather Map New forecast layout! Learn more

10-Day Weather Forecast

Advertisements
Track Severe Weather on mobile